sensor_id;sensor_type;location;lat;lon;timestamp;pressure;altitude;pressure_sealevel;temperature;humidity
64253;BME280;50592;52.958;-7.470;2022-09-09T00:02:01;99603.16;;;14.13;100.00
64253;BME280;50592;52.958;-7.470;2022-09-09T00:04:34;99601.34;;;14.13;100.00
64253;BME280;50592;52.958;-7.470;2022-09-09T00:07:16;99595.84;;;14.15;100.00
64253;BME280;50592;52.958;-7.470;2022-09-09T00:12:31;99609.31;;;14.13;100.00
64253;BME280;50592;52.958;-7.470;2022-09-09T00:15:19;99600.88;;;14.10;100.00
64253;BME280;50592;52.958;-7.470;2022-09-09T00:18:24;99616.75;;;14.03;100.00
64253;BME280;50592;52.958;-7.470;2022-09-09T00:21:06;99611.28;;;14.05;100.00
64253;BME280;50592;52.958;-7.470;2022-09-09T00:23:42;99612.09;;;14.05;100.00
64253;BME280;50592;52.958;-7.470;2022-09-09T00:29:04;99613.75;;;14.06;100.00
64253;BME280;50592;52.958;-7.470;2022-09-09T00:31:31;99622.53;;;14.07;100.00
64253;BME280;50592;52.958;-7.470;2022-09-09T00:34:16;99625.81;;;14.09;100.00
64253;BME280;50592;52.958;-7.470;2022-09-09T00:36:44;99622.97;;;14.10;100.00
64253;BME280;50592;52.958;-7.470;2022-09-09T00:39:36;99612.16;;;14.12;100.00
64253;BME280;50592;52.958;-7.470;2022-09-09T00:44:37;99609.56;;;14.19;100.00
64253;BME280;50592;52.958;-7.470;2022-09-09T00:47:18;99612.03;;;14.20;100.00
64253;BME280;50592;52.958;-7.470;2022-09-09T00:50:53;99620.22;;;14.19;100.00
64253;BME280;50592;52.958;-7.470;2022-09-09T00:56:18;99628.03;;;14.27;100.00
64253;BME280;50592;52.958;-7.470;2022-09-09T01:01:35;99618.50;;;14.33;100.00
64253;BME280;50592;52.958;-7.470;2022-09-09T01:04:06;99616.50;;;14.35;100.00
64253;BME280;50592;52.958;-7.470;2022-09-09T01:06:42;99624.47;;;14.35;100.00
64253;BME280;50592;52.958;-7.470;2022-09-09T01:09:18;99618.16;;;14.21;100.00
64253;BME280;50592;52.958;-7.470;2022-09-09T01:11:55;99627.25;;;14.26;100.00
64253;BME280;50592;52.958;-7.470;2022-09-09T01:20:13;99623.06;;;14.17;100.00
64253;BME280;50592;52.958;-7.470;2022-09-09T01:23:20;99633.31;;;14.20;100.00
64253;BME280;50592;52.958;-7.470;2022-09-09T01:26:26;99635.97;;;14.20;100.00
64253;BME280;50592;52.958;-7.470;2022-09-09T01:28:55;99631.44;;;14.21;100.00
64253;BME280;50592;52.958;-7.470;2022-09-09T01:34:19;99647.72;;;14.11;100.00
64253;BME280;50592;52.958;-7.470;2022-09-09T01:37:02;99647.28;;;14.07;100.00
64253;BME280;50592;52.958;-7.470;2022-09-09T01:39:32;99642.50;;;14.02;100.00
64253;BME280;50592;52.958;-7.470;2022-09-09T01:42:07;99641.88;;;14.00;100.00
64253;BME280;50592;52.958;-7.470;2022-09-09T01:44:35;99649.66;;;14.02;100.00
64253;BME280;50592;52.958;-7.470;2022-09-09T01:47:03;99647.56;;;13.97;100.00
64253;BME280;50592;52.958;-7.470;2022-09-09T01:49:29;99647.75;;;13.96;100.00
64253;BME280;50592;52.958;-7.470;2022-09-09T01:51:56;99648.75;;;13.95;100.00
64253;BME280;50592;52.958;-7.470;2022-09-09T01:54:40;99647.94;;;13.94;100.00
64253;BME280;50592;52.958;-7.470;2022-09-09T01:57:21;99644.44;;;13.94;100.00
64253;BME280;50592;52.958;-7.470;2022-09-09T02:05:40;99642.72;;;13.86;100.00
64253;BME280;50592;52.958;-7.470;2022-09-09T02:08:36;99647.03;;;13.87;100.00
64253;BME280;50592;52.958;-7.470;2022-09-09T02:11:18;99646.22;;;13.86;100.00
64253;BME280;50592;52.958;-7.470;2022-09-09T02:14:11;99643.75;;;13.85;100.00
64253;BME280;50592;52.958;-7.470;2022-09-09T02:16:52;99644.38;;;13.87;100.00
64253;BME280;50592;52.958;-7.470;2022-09-09T02:19:31;99645.19;;;13.87;100.00
64253;BME280;50592;52.958;-7.470;2022-09-09T02:22:07;99644.56;;;13.85;100.00
64253;BME280;50592;52.958;-7.470;2022-09-09T02:24:35;99633.75;;;13.87;100.00
64253;BME280;50592;52.958;-7.470;2022-09-09T02:27:20;99639.25;;;13.85;100.00
64253;BME280;50592;52.958;-7.470;2022-09-09T02:29:49;99643.94;;;13.83;100.00
64253;BME280;50592;52.958;-7.470;2022-09-09T02:32:21;99641.47;;;13.82;100.00
64253;BME280;50592;52.958;-7.470;2022-09-09T02:34:51;99638.34;;;13.78;100.00
64253;BME280;50592;52.958;-7.470;2022-09-09T02:37:23;99639.72;;;13.74;100.00
64253;BME280;50592;52.958;-7.470;2022-09-09T02:39:52;99637.63;;;13.69;100.00
64253;BME280;50592;52.958;-7.470;2022-09-09T02:42:20;99636.97;;;13.67;100.00
64253;BME280;50592;52.958;-7.470;2022-09-09T02:44:46;99635.34;;;13.66;100.00
64253;BME280;50592;52.958;-7.470;2022-09-09T02:50:05;99636.78;;;13.69;100.00
64253;BME280;50592;52.958;-7.470;2022-09-09T02:52:49;99643.94;;;13.68;100.00
64253;BME280;50592;52.958;-7.470;2022-09-09T02:55:24;99644.06;;;13.60;100.00
64253;BME280;50592;52.958;-7.470;2022-09-09T02:57:57;99648.63;;;13.66;100.00
64253;BME280;50592;52.958;-7.470;2022-09-09T03:00:28;99647.41;;;13.69;100.00
64253;BME280;50592;52.958;-7.470;2022-09-09T03:02:59;99646.22;;;13.71;100.00
64253;BME280;50592;52.958;-7.470;2022-09-09T03:05:25;99653.00;;;13.74;100.00
64253;BME280;50592;52.958;-7.470;2022-09-09T03:07:52;99657.75;;;13.79;100.00
64253;BME280;50592;52.958;-7.470;2022-09-09T03:10:19;99653.91;;;13.81;100.00
64253;BME280;50592;52.958;-7.470;2022-09-09T03:12:45;99655.19;;;13.85;100.00
64253;BME280;50592;52.958;-7.470;2022-09-09T03:15:11;99651.06;;;13.83;100.00
64253;BME280;50592;52.958;-7.470;2022-09-09T03:17:38;99655.56;;;13.82;100.00
64253;BME280;50592;52.958;-7.470;2022-09-09T03:20:05;99659.22;;;13.81;100.00
64253;BME280;50592;52.958;-7.470;2022-09-09T03:22:32;99654.91;;;13.80;100.00
64253;BME280;50592;52.958;-7.470;2022-09-09T03:25:00;99649.59;;;13.80;100.00
64253;BME280;50592;52.958;-7.470;2022-09-09T03:27:29;99653.91;;;13.81;100.00
64253;BME280;50592;52.958;-7.470;2022-09-09T03:29:56;99652.25;;;13.80;100.00
64253;BME280;50592;52.958;-7.470;2022-09-09T03:32:24;99652.91;;;13.82;100.00
64253;BME280;50592;52.958;-7.470;2022-09-09T03:34:52;99659.03;;;13.83;100.00
64253;BME280;50592;52.958;-7.470;2022-09-09T03:37:19;99658.84;;;13.84;100.00
64253;BME280;50592;52.958;-7.470;2022-09-09T03:39:46;99662.34;;;13.85;100.00
64253;BME280;50592;52.958;-7.470;2022-09-09T03:42:13;99664.63;;;13.88;100.00
64253;BME280;50592;52.958;-7.470;2022-09-09T03:44:40;99656.66;;;13.88;100.00
64253;BME280;50592;52.958;-7.470;2022-09-09T03:47:07;99660.13;;;13.88;100.00
64253;BME280;50592;52.958;-7.470;2022-09-09T03:49:33;99654.81;;;13.88;100.00
64253;BME280;50592;52.958;-7.470;2022-09-09T03:52:00;99653.16;;;13.87;100.00
64253;BME280;50592;52.958;-7.470;2022-09-09T03:54:26;99658.28;;;13.89;100.00
64253;BME280;50592;52.958;-7.470;2022-09-09T03:56:53;99661.97;;;13.88;100.00
64253;BME280;50592;52.958;-7.470;2022-09-09T03:59:20;99669.09;;;13.87;100.00
64253;BME280;50592;52.958;-7.470;2022-09-09T04:01:47;99667.28;;;13.88;100.00
64253;BME280;50592;52.958;-7.470;2022-09-09T04:04:13;99666.63;;;13.86;100.00
64253;BME280;50592;52.958;-7.470;2022-09-09T04:06:38;99671.13;;;13.85;100.00
64253;BME280;50592;52.958;-7.470;2022-09-09T04:09:04;99664.16;;;13.84;100.00
64253;BME280;50592;52.958;-7.470;2022-09-09T04:11:31;99673.97;;;13.84;100.00
64253;BME280;50592;52.958;-7.470;2022-09-09T04:13:58;99667.19;;;13.81;100.00
64253;BME280;50592;52.958;-7.470;2022-09-09T04:16:24;99672.97;;;13.85;100.00
64253;BME280;50592;52.958;-7.470;2022-09-09T04:18:50;99676.44;;;13.85;100.00
64253;BME280;50592;52.958;-7.470;2022-09-09T04:21:17;99666.00;;;13.84;100.00
64253;BME280;50592;52.958;-7.470;2022-09-09T04:23:43;99665.53;;;13.80;100.00
64253;BME280;50592;52.958;-7.470;2022-09-09T04:26:08;99668.38;;;13.79;100.00
64253;BME280;50592;52.958;-7.470;2022-09-09T04:28:36;99665.09;;;13.76;100.00
64253;BME280;50592;52.958;-7.470;2022-09-09T04:31:15;99663.44;;;13.75;100.00
64253;BME280;50592;52.958;-7.470;2022-09-09T04:33:44;99664.81;;;13.71;100.00
64253;BME280;50592;52.958;-7.470;2022-09-09T04:36:09;99665.81;;;13.70;100.00
64253;BME280;50592;52.958;-7.470;2022-09-09T04:38:36;99664.81;;;13.71;100.00
64253;BME280;50592;52.958;-7.470;2022-09-09T04:41:02;99664.38;;;13.68;100.00
64253;BME280;50592;52.958;-7.470;2022-09-09T04:43:28;99666.00;;;13.69;100.00
64253;BME280;50592;52.958;-7.470;2022-09-09T04:45:56;99661.72;;;13.68;100.00
64253;BME280;50592;52.958;-7.470;2022-09-09T04:48:24;99661.25;;;13.64;100.00
64253;BME280;50592;52.958;-7.470;2022-09-09T04:51:11;99658.59;;;13.64;100.00
64253;BME280;50592;52.958;-7.470;2022-09-09T04:53:37;99667.41;;;13.64;100.00
64253;BME280;50592;52.958;-7.470;2022-09-09T04:56:15;99666.19;;;13.67;100.00
64253;BME280;50592;52.958;-7.470;2022-09-09T04:58:46;99660.88;;;13.67;100.00
64253;BME280;50592;52.958;-7.470;2022-09-09T05:01:18;99665.19;;;13.68;100.00
64253;BME280;50592;52.958;-7.470;2022-09-09T05:03:46;99657.22;;;13.68;100.00
64253;BME280;50592;52.958;-7.470;2022-09-09T05:06:19;99665.81;;;13.70;100.00
64253;BME280;50592;52.958;-7.470;2022-09-09T05:08:48;99656.41;;;13.68;100.00
64253;BME280;50592;52.958;-7.470;2022-09-09T05:11:22;99666.00;;;13.69;100.00
64253;BME280;50592;52.958;-7.470;2022-09-09T05:13:51;99662.09;;;13.64;100.00
64253;BME280;50592;52.958;-7.470;2022-09-09T05:16:19;99660.59;;;13.62;100.00
64253;BME280;50592;52.958;-7.470;2022-09-09T05:18:45;99665.09;;;13.61;100.00
64253;BME280;50592;52.958;-7.470;2022-09-09T05:21:18;99667.94;;;13.60;100.00
64253;BME280;50592;52.958;-7.470;2022-09-09T05:23:45;99664.28;;;13.61;100.00
64253;BME280;50592;52.958;-7.470;2022-09-09T05:26:14;99664.09;;;13.62;100.00
64253;BME280;50592;52.958;-7.470;2022-09-09T05:28:40;99674.72;;;13.62;100.00
64253;BME280;50592;52.958;-7.470;2022-09-09T05:31:07;99673.69;;;13.63;100.00
64253;BME280;50592;52.958;-7.470;2022-09-09T05:33:37;99669.41;;;13.62;100.00
64253;BME280;50592;52.958;-7.470;2022-09-09T05:36:11;99664.09;;;13.62;100.00
64253;BME280;50592;52.958;-7.470;2022-09-09T05:38:41;99665.28;;;13.60;100.00
64253;BME280;50592;52.958;-7.470;2022-09-09T05:41:09;99661.63;;;13.61;100.00
64253;BME280;50592;52.958;-7.470;2022-09-09T05:43:37;99663.44;;;13.60;100.00
64253;BME280;50592;52.958;-7.470;2022-09-09T05:48:35;99671.41;;;13.60;100.00
64253;BME280;50592;52.958;-7.470;2022-09-09T05:51:25;99675.06;;;13.59;100.00
64253;BME280;50592;52.958;-7.470;2022-09-09T05:53:54;99679.75;;;13.57;100.00
64253;BME280;50592;52.958;-7.470;2022-09-09T05:56:23;99668.31;;;13.57;100.00
64253;BME280;50592;52.958;-7.470;2022-09-09T05:58:52;99677.09;;;13.57;100.00
64253;BME280;50592;52.958;-7.470;2022-09-09T06:01:28;99675.25;;;13.58;100.00
64253;BME280;50592;52.958;-7.470;2022-09-09T06:03:56;99675.91;;;13.60;100.00
64253;BME280;50592;52.958;-7.470;2022-09-09T06:06:25;99678.38;;;13.61;100.00
64253;BME280;50592;52.958;-7.470;2022-09-09T06:09:00;99679.38;;;13.60;100.00
64253;BME280;50592;52.958;-7.470;2022-09-09T06:11:33;99682.31;;;13.66;100.00
64253;BME280;50592;52.958;-7.470;2022-09-09T06:14:02;99690.09;;;13.67;100.00
64253;BME280;50592;52.958;-7.470;2022-09-09T06:16:30;99692.75;;;13.67;100.00
64253;BME280;50592;52.958;-7.470;2022-09-09T06:18:58;99691.72;;;13.68;100.00
64253;BME280;50592;52.958;-7.470;2022-09-09T06:21:33;99698.34;;;13.72;100.00
64253;BME280;50592;52.958;-7.470;2022-09-09T06:24:01;99697.31;;;13.73;100.00
64253;BME280;50592;52.958;-7.470;2022-09-09T06:26:30;99701.63;;;13.74;100.00
64253;BME280;50592;52.958;-7.470;2022-09-09T06:28:57;99694.28;;;13.76;100.00
64253;BME280;50592;52.958;-7.470;2022-09-09T06:31:26;99693.94;;;13.80;100.00
64253;BME280;50592;52.958;-7.470;2022-09-09T06:33:53;99701.72;;;13.81;100.00
64253;BME280;50592;52.958;-7.470;2022-09-09T06:36:27;99702.19;;;13.85;100.00
64253;BME280;50592;52.958;-7.470;2022-09-09T06:38:53;99707.50;;;13.85;100.00
64253;BME280;50592;52.958;-7.470;2022-09-09T06:41:20;99709.78;;;13.88;100.00
64253;BME280;50592;52.958;-7.470;2022-09-09T06:43:48;99711.59;;;13.87;100.00
64253;BME280;50592;52.958;-7.470;2022-09-09T06:46:18;99704.47;;;13.88;100.00
64253;BME280;50592;52.958;-7.470;2022-09-09T06:48:45;99708.75;;;13.89;100.00
64253;BME280;50592;52.958;-7.470;2022-09-09T06:51:21;99718.22;;;13.92;100.00
64253;BME280;50592;52.958;-7.470;2022-09-09T06:53:51;99722.88;;;13.89;100.00
64253;BME280;50592;52.958;-7.470;2022-09-09T06:58:56;99723.91;;;13.88;100.00
64253;BME280;50592;52.958;-7.470;2022-09-09T07:01:28;99729.22;;;13.88;100.00
64253;BME280;50592;52.958;-7.470;2022-09-09T07:03:58;99724.69;;;13.89;100.00
64253;BME280;50592;52.958;-7.470;2022-09-09T07:06:30;99723.91;;;13.88;100.00
64253;BME280;50592;52.958;-7.470;2022-09-09T07:09:00;99727.16;;;13.91;100.00
64253;BME280;50592;52.958;-7.470;2022-09-09T07:11:30;99723.53;;;13.92;100.00
64253;BME280;50592;52.958;-7.470;2022-09-09T07:13:58;99714.53;;;13.93;100.00
64253;BME280;50592;52.958;-7.470;2022-09-09T07:16:25;99717.00;;;13.94;100.00
64253;BME280;50592;52.958;-7.470;2022-09-09T07:18:53;99715.00;;;13.96;100.00
64253;BME280;50592;52.958;-7.470;2022-09-09T07:21:25;99720.13;;;13.98;100.00
64253;BME280;50592;52.958;-7.470;2022-09-09T07:23:52;99715.81;;;13.97;100.00
64253;BME280;50592;52.958;-7.470;2022-09-09T07:26:21;99730.09;;;13.96;100.00
64253;BME280;50592;52.958;-7.470;2022-09-09T07:28:49;99729.09;;;13.97;100.00
64253;BME280;50592;52.958;-7.470;2022-09-09T07:31:20;99725.44;;;13.98;100.00
64253;BME280;50592;52.958;-7.470;2022-09-09T07:33:48;99727.06;;;13.99;100.00
64253;BME280;50592;52.958;-7.470;2022-09-09T07:36:16;99719.94;;;13.99;100.00
64253;BME280;50592;52.958;-7.470;2022-09-09T07:38:45;99720.75;;;14.00;100.00
64253;BME280;50592;52.958;-7.470;2022-09-09T07:41:15;99725.25;;;13.99;100.00
64253;BME280;50592;52.958;-7.470;2022-09-09T07:43:43;99730.56;;;13.99;100.00
64253;BME280;50592;52.958;-7.470;2022-09-09T07:46:12;99728.72;;;14.00;100.00
64253;BME280;50592;52.958;-7.470;2022-09-09T07:48:39;99734.69;;;14.02;100.00
64253;BME280;50592;52.958;-7.470;2022-09-09T07:51:13;99727.34;;;14.04;100.00
64253;BME280;50592;52.958;-7.470;2022-09-09T07:53:40;99745.78;;;14.06;100.00
64253;BME280;50592;52.958;-7.470;2022-09-09T07:56:12;99742.09;;;14.07;100.00
64253;BME280;50592;52.958;-7.470;2022-09-09T07:58:40;99752.72;;;14.07;100.00
64253;BME280;50592;52.958;-7.470;2022-09-09T08:01:18;99756.69;;;14.11;100.00
64253;BME280;50592;52.958;-7.470;2022-09-09T08:03:46;99748.72;;;14.11;100.00
64253;BME280;50592;52.958;-7.470;2022-09-09T08:06:13;99757.47;;;14.11;100.00
64253;BME280;50592;52.958;-7.470;2022-09-09T08:08:40;99759.78;;;14.14;100.00
64253;BME280;50592;52.958;-7.470;2022-09-09T08:11:12;99768.38;;;14.17;100.00
64253;BME280;50592;52.958;-7.470;2022-09-09T08:13:41;99763.44;;;14.13;100.00
64253;BME280;50592;52.958;-7.470;2022-09-09T08:16:14;99764.91;;;14.16;100.00
64253;BME280;50592;52.958;-7.470;2022-09-09T08:18:41;99764.09;;;14.16;100.00
64253;BME280;50592;52.958;-7.470;2022-09-09T08:21:15;99780.84;;;14.16;100.00
64253;BME280;50592;52.958;-7.470;2022-09-09T08:23:45;99771.88;;;14.17;100.00
64253;BME280;50592;52.958;-7.470;2022-09-09T08:26:14;99780.28;;;14.21;100.00
64253;BME280;50592;52.958;-7.470;2022-09-09T08:28:41;99780.28;;;14.21;100.00
64253;BME280;50592;52.958;-7.470;2022-09-09T08:31:11;99782.38;;;14.25;100.00
64253;BME280;50592;52.958;-7.470;2022-09-09T08:33:38;99781.03;;;14.30;100.00
64253;BME280;50592;52.958;-7.470;2022-09-09T08:36:06;99783.13;;;14.34;100.00
64253;BME280;50592;52.958;-7.470;2022-09-09T08:38:32;99787.44;;;14.35;100.00
64253;BME280;50592;52.958;-7.470;2022-09-09T08:52:38;99812.28;;;14.43;100.00
64253;BME280;50592;52.958;-7.470;2022-09-09T08:57:57;99825.63;;;14.49;100.00
64253;BME280;50592;52.958;-7.470;2022-09-09T09:00:53;99823.63;;;14.51;100.00
64253;BME280;50592;52.958;-7.470;2022-09-09T09:03:25;99827.31;;;14.50;100.00
64253;BME280;50592;52.958;-7.470;2022-09-09T09:06:06;99824.47;;;14.52;100.00
64253;BME280;50592;52.958;-7.470;2022-09-09T09:08:51;99833.06;;;14.54;100.00
64253;BME280;50592;52.958;-7.470;2022-09-09T09:11:20;99841.88;;;14.55;100.00
64253;BME280;50592;52.958;-7.470;2022-09-09T09:13:51;99841.03;;;14.54;100.00
64253;BME280;50592;52.958;-7.470;2022-09-09T09:16:33;99848.22;;;14.54;100.00
64253;BME280;50592;52.958;-7.470;2022-09-09T09:19:02;99852.50;;;14.55;100.00
64253;BME280;50592;52.958;-7.470;2022-09-09T09:24:07;99855.44;;;14.60;100.00
64253;BME280;50592;52.958;-7.470;2022-09-09T09:26:42;99861.75;;;14.59;100.00
64253;BME280;50592;52.958;-7.470;2022-09-09T09:29:18;99863.59;;;14.58;100.00
64253;BME280;50592;52.958;-7.470;2022-09-09T09:32:03;99860.13;;;14.58;100.00
64253;BME280;50592;52.958;-7.470;2022-09-09T09:34:29;99870.75;;;14.58;100.00
64253;BME280;50592;52.958;-7.470;2022-09-09T09:36:59;99870.38;;;14.61;100.00
64253;BME280;50592;52.958;-7.470;2022-09-09T09:39:31;99876.72;;;14.60;100.00
64253;BME280;50592;52.958;-7.470;2022-09-09T09:42:10;99889.00;;;14.61;100.00
64253;BME280;50592;52.958;-7.470;2022-09-09T09:44:40;99889.28;;;14.66;100.00
64253;BME280;50592;52.958;-7.470;2022-09-09T09:47:19;99899.16;;;14.72;100.00
64253;BME280;50592;52.958;-7.470;2022-09-09T09:50:19;99906.72;;;14.84;100.00
64253;BME280;50592;52.958;-7.470;2022-09-09T09:52:55;99904.94;;;14.91;100.00
64253;BME280;50592;52.958;-7.470;2022-09-09T09:55:22;99905.69;;;15.00;100.00
64253;BME280;50592;52.958;-7.470;2022-09-09T09:57:50;99907.41;;;15.08;100.00
64253;BME280;50592;52.958;-7.470;2022-09-09T10:00:21;99909.13;;;15.16;100.00
64253;BME280;50592;52.958;-7.470;2022-09-09T10:02:59;99912.25;;;15.19;100.00
64253;BME280;50592;52.958;-7.470;2022-09-09T10:05:30;99919.03;;;15.22;100.00
64253;BME280;50592;52.958;-7.470;2022-09-09T10:08:12;99916.16;;;15.23;100.00
64253;BME280;50592;52.958;-7.470;2022-09-09T10:13:32;99918.72;;;15.32;100.00
64253;BME280;50592;52.958;-7.470;2022-09-09T10:19:34;99927.84;;;15.44;100.00
64253;BME280;50592;52.958;-7.470;2022-09-09T10:22:25;99935.28;;;15.49;100.00
64253;BME280;50592;52.958;-7.470;2022-09-09T10:27:38;99938.69;;;15.65;100.00
64253;BME280;50592;52.958;-7.470;2022-09-09T10:30:19;99938.97;;;15.70;100.00
64253;BME280;50592;52.958;-7.470;2022-09-09T10:32:46;99939.75;;;15.70;100.00
64253;BME280;50592;52.958;-7.470;2022-09-09T10:37:54;99949.53;;;15.85;100.00
64253;BME280;50592;52.958;-7.470;2022-09-09T10:43:23;99956.16;;;15.89;100.00
64253;BME280;50592;52.958;-7.470;2022-09-09T10:48:22;99960.81;;;16.02;100.00
64253;BME280;50592;52.958;-7.470;2022-09-09T10:51:28;99963.28;;;16.04;100.00
64253;BME280;50592;52.958;-7.470;2022-09-09T10:54:17;99965.69;;;15.98;100.00
64253;BME280;50592;52.958;-7.470;2022-09-09T10:56:52;99963.31;;;15.88;100.00
64253;BME280;50592;52.958;-7.470;2022-09-09T10:59:36;99972.44;;;15.79;100.00
64253;BME280;50592;52.958;-7.470;2022-09-09T11:02:28;99978.91;;;15.70;100.00
64253;BME280;50592;52.958;-7.470;2022-09-09T11:05:05;99978.34;;;15.74;100.00
64253;BME280;50592;52.958;-7.470;2022-09-09T11:13:04;99989.19;;;15.73;100.00
64253;BME280;50592;52.958;-7.470;2022-09-09T11:15:44;99987.38;;;15.73;100.00
64253;BME280;50592;52.958;-7.470;2022-09-09T11:18:17;99988.63;;;15.78;100.00
64253;BME280;50592;52.958;-7.470;2022-09-09T11:20:46;99981.88;;;15.82;100.00
64253;BME280;50592;52.958;-7.470;2022-09-09T11:23:18;99986.25;;;15.90;100.00
64253;BME280;50592;52.958;-7.470;2022-09-09T11:25:55;99978.53;;;15.95;100.00
64253;BME280;50592;52.958;-7.470;2022-09-09T11:29:26;99978.44;;;16.03;100.00
64253;BME280;50592;52.958;-7.470;2022-09-09T11:42:17;99983.59;;;16.33;100.00
64253;BME280;50592;52.958;-7.470;2022-09-09T11:44:44;99987.03;;;16.27;100.00
64253;BME280;50592;52.958;-7.470;2022-09-09T11:47:29;99985.00;;;16.29;100.00
64253;BME280;50592;52.958;-7.470;2022-09-09T11:52:44;99988.94;;;16.33;100.00
64253;BME280;50592;52.958;-7.470;2022-09-09T11:55:29;99985.34;;;16.48;100.00
64253;BME280;50592;52.958;-7.470;2022-09-09T11:58:04;99981.50;;;16.57;100.00
64253;BME280;50592;52.958;-7.470;2022-09-09T12:00:37;99977.50;;;16.75;100.00
64253;BME280;50592;52.958;-7.470;2022-09-09T12:03:04;99977.91;;;16.79;100.00
64253;BME280;50592;52.958;-7.470;2022-09-09T12:05:39;99978.53;;;16.81;100.00
64253;BME280;50592;52.958;-7.470;2022-09-09T12:08:09;99989.47;;;16.86;100.00
64253;BME280;50592;52.958;-7.470;2022-09-09T12:10:40;99982.28;;;16.93;100.00
64253;BME280;50592;52.958;-7.470;2022-09-09T12:13:18;99980.69;;;16.99;100.00
64253;BME280;50592;52.958;-7.470;2022-09-09T12:16:03;99983.16;;;17.01;100.00
64253;BME280;50592;52.958;-7.470;2022-09-09T12:18:40;99979.03;;;16.98;100.00
64253;BME280;50592;52.958;-7.470;2022-09-09T12:21:29;99980.25;;;16.95;100.00
64253;BME280;50592;52.958;-7.470;2022-09-09T12:24:13;99986.41;;;16.89;100.00
64253;BME280;50592;52.958;-7.470;2022-09-09T12:30:04;99986.69;;;16.72;100.00
64253;BME280;50592;52.958;-7.470;2022-09-09T12:32:28;99995.47;;;16.59;100.00
64253;BME280;50592;52.958;-7.470;2022-09-09T12:35:21;99995.03;;;16.56;100.00
64253;BME280;50592;52.958;-7.470;2022-09-09T12:37:53;99998.13;;;16.59;100.00
64253;BME280;50592;52.958;-7.470;2022-09-09T12:40:27;99997.94;;;16.61;100.00
64253;BME280;50592;52.958;-7.470;2022-09-09T12:42:53;100002.88;;;16.64;100.00
64253;BME280;50592;52.958;-7.470;2022-09-09T12:45:25;100007.25;;;16.79;100.00
64253;BME280;50592;52.958;-7.470;2022-09-09T12:50:27;100006.16;;;17.02;100.00
64253;BME280;50592;52.958;-7.470;2022-09-09T12:52:58;99989.75;;;17.05;100.00
64253;BME280;50592;52.958;-7.470;2022-09-09T12:55:28;100002.53;;;17.09;100.00
64253;BME280;50592;52.958;-7.470;2022-09-09T12:57:56;100007.03;;;17.09;100.00
64253;BME280;50592;52.958;-7.470;2022-09-09T13:00:25;100014.28;;;17.15;100.00
64253;BME280;50592;52.958;-7.470;2022-09-09T13:02:56;100007.09;;;17.22;100.00
64253;BME280;50592;52.958;-7.470;2022-09-09T13:05:27;100027.69;;;17.29;100.00
64253;BME280;50592;52.958;-7.470;2022-09-09T13:08:10;100013.34;;;17.43;100.00
64253;BME280;50592;52.958;-7.470;2022-09-09T13:13:25;100022.41;;;17.49;100.00
64253;BME280;50592;52.958;-7.470;2022-09-09T13:15:59;100031.44;;;17.48;100.00
64253;BME280;50592;52.958;-7.470;2022-09-09T13:18:29;100031.66;;;17.46;100.00
64253;BME280;50592;52.958;-7.470;2022-09-09T13:20:55;100034.94;;;17.42;100.00
64253;BME280;50592;52.958;-7.470;2022-09-09T13:23:27;100033.69;;;17.44;100.00
64253;BME280;50592;52.958;-7.470;2022-09-09T13:26:00;100042.34;;;17.46;100.00
64253;BME280;50592;52.958;-7.470;2022-09-09T13:28:29;100038.03;;;17.45;100.00
64253;BME280;50592;52.958;-7.470;2022-09-09T13:31:03;100043.56;;;17.51;100.00
64253;BME280;50592;52.958;-7.470;2022-09-09T13:33:35;100051.38;;;17.52;100.00
64253;BME280;50592;52.958;-7.470;2022-09-09T13:36:09;100049.78;;;17.58;100.00
64253;BME280;50592;52.958;-7.470;2022-09-09T13:38:53;100041.38;;;17.61;100.00
64253;BME280;50592;52.958;-7.470;2022-09-09T13:41:25;100047.94;;;17.65;100.00
64253;BME280;50592;52.958;-7.470;2022-09-09T13:43:53;100046.72;;;17.61;100.00
64253;BME280;50592;52.958;-7.470;2022-09-09T13:46:35;100043.63;;;17.64;100.00
64253;BME280;50592;52.958;-7.470;2022-09-09T13:49:19;100044.44;;;17.58;100.00
64253;BME280;50592;52.958;-7.470;2022-09-09T13:51:50;100052.84;;;17.55;100.00
64253;BME280;50592;52.958;-7.470;2022-09-09T13:54:19;100055.53;;;17.55;100.00
64253;BME280;50592;52.958;-7.470;2022-09-09T13:56:46;100048.72;;;17.52;100.00
64253;BME280;50592;52.958;-7.470;2022-09-09T13:59:16;100052.44;;;17.51;100.00
64253;BME280;50592;52.958;-7.470;2022-09-09T14:01:45;100059.81;;;17.49;100.00
64253;BME280;50592;52.958;-7.470;2022-09-09T14:04:11;100061.69;;;17.48;100.00
64253;BME280;50592;52.958;-7.470;2022-09-09T14:06:38;100073.56;;;17.46;100.00
64253;BME280;50592;52.958;-7.470;2022-09-09T14:09:12;100075.00;;;17.42;100.00
64253;BME280;50592;52.958;-7.470;2022-09-09T14:11:38;100067.97;;;17.34;100.00
64253;BME280;50592;52.958;-7.470;2022-09-09T14:14:03;100075.56;;;17.30;100.00
64253;BME280;50592;52.958;-7.470;2022-09-09T14:16:30;100075.75;;;17.29;100.00
64253;BME280;50592;52.958;-7.470;2022-09-09T14:18:56;100075.13;;;17.27;100.00
64253;BME280;50592;52.958;-7.470;2022-09-09T14:21:23;100079.25;;;17.29;100.00
64253;BME280;50592;52.958;-7.470;2022-09-09T14:23:49;100078.66;;;17.34;100.00
64253;BME280;50592;52.958;-7.470;2022-09-09T14:26:15;100077.88;;;17.40;100.00
64253;BME280;50592;52.958;-7.470;2022-09-09T14:28:41;100075.41;;;17.39;100.00
64253;BME280;50592;52.958;-7.470;2022-09-09T14:31:07;100087.72;;;17.40;100.00
64253;BME280;50592;52.958;-7.470;2022-09-09T14:33:33;100088.31;;;17.35;100.00
64253;BME280;50592;52.958;-7.470;2022-09-09T14:36:00;100090.75;;;17.30;100.00
64253;BME280;50592;52.958;-7.470;2022-09-09T14:38:31;100087.69;;;17.33;100.00
64253;BME280;50592;52.958;-7.470;2022-09-09T14:41:01;100088.72;;;17.32;100.00
64253;BME280;50592;52.958;-7.470;2022-09-09T14:43:29;100088.31;;;17.35;100.00